sensor_id;sensor_type;location;lat;lon;timestamp;P1;durP1;ratioP1;P2;durP2;ratioP2
15557;SDS011;7880;50.110;9.372;2023-05-07T00:03:56;1.7307692307692308;;;1.4307692307692308;;
15557;SDS011;7880;50.110;9.372;2023-05-07T00:09:01;1.0307692307692307;;;0.9307692307692309;;
15557;SDS011;7880;50.110;9.372;2023-05-07T00:14:03;1.4;;;1.0307692307692307;;
15557;SDS011;7880;50.110;9.372;2023-05-07T00:19:08;3.2999999999999994;;;1.0999999999999999;;
15557;SDS011;7880;50.110;9.372;2023-05-07T00:24:12;1.5692307692307692;;;1.0;;
15557;SDS011;7880;50.110;9.372;2023-05-07T00:29:20;2.153846153846154;;;1.0;;
15557;SDS011;7880;50.110;9.372;2023-05-07T00:34:23;1.2307692307692308;;;1.1307692307692305;;
15557;SDS011;7880;50.110;9.372;2023-05-07T00:39:27;1.8230769230769233;;;1.1999999999999997;;
15557;SDS011;7880;50.110;9.372;2023-05-07T00:44:31;1.6999999999999995;;;1.1307692307692305;;
15557;SDS011;7880;50.110;9.372;2023-05-07T00:49:38;1.0;;;0.9000000000000002;;
15557;SDS011;7880;50.110;9.372;2023-05-07T00:54:40;2.669230769230769;;;1.1999999999999997;;
15557;SDS011;7880;50.110;9.372;2023-05-07T01:00:09;2.669230769230769;;;0.9000000000000002;;
15557;SDS011;7880;50.110;9.372;2023-05-07T01:05:13;3.06923076923077;;;0.9692307692307693;;
15557;SDS011;7880;50.110;9.372;2023-05-07T01:10:18;1.0999999999999999;;;1.0;;
15557;SDS011;7880;50.110;9.372;2023-05-07T01:15:25;2.1000000000000005;;;1.1999999999999997;;
15557;SDS011;7880;50.110;9.372;2023-05-07T01:20:27;5.0;;;1.0307692307692307;;
15557;SDS011;7880;50.110;9.372;2023-05-07T01:25:30;1.4;;;1.0999999999999999;;
15557;SDS011;7880;50.110;9.372;2023-05-07T01:30:34;1.4;;;1.1999999999999997;;
15557;SDS011;7880;50.110;9.372;2023-05-07T01:35:41;2.269230769230769;;;1.3692307692307695;;
15557;SDS011;7880;50.110;9.372;2023-05-07T01:40:46;3.338461538461539;;;1.0999999999999999;;
15557;SDS011;7880;50.110;9.372;2023-05-07T01:45:50;3.1769230769230776;;;1.3000000000000003;;
15557;SDS011;7880;50.110;9.372;2023-05-07T01:56:25;3.338461538461539;;;1.3000000000000003;;
15557;SDS011;7880;50.110;9.372;2023-05-07T02:01:24;1.5;;;1.0999999999999999;;
15557;SDS011;7880;50.110;9.372;2023-05-07T02:06:27;1.4;;;1.3000000000000003;;
15557;SDS011;7880;50.110;9.372;2023-05-07T02:11:31;2.3461538461538467;;;1.3000000000000003;;
15557;SDS011;7880;50.110;9.372;2023-05-07T02:16:35;3.369230769230768;;;1.4;;
15557;SDS011;7880;50.110;9.372;2023-05-07T02:21:40;3.938461538461538;;;1.1999999999999997;;
15557;SDS011;7880;50.110;9.372;2023-05-07T02:26:44;1.2615384615384615;;;1.1307692307692305;;
15557;SDS011;7880;50.110;9.372;2023-05-07T02:31:50;2.5;;;1.0;;
15557;SDS011;7880;50.110;9.372;2023-05-07T02:36:55;1.7307692307692308;;;1.1307692307692305;;
15557;SDS011;7880;50.110;9.372;2023-05-07T02:42:02;2.6307692307692316;;;1.0307692307692309;;
15557;SDS011;7880;50.110;9.372;2023-05-07T02:47:08;1.5615384615384613;;;1.1999999999999997;;
15557;SDS011;7880;50.110;9.372;2023-05-07T02:52:10;1.5692307692307692;;;1.3000000000000003;;
15557;SDS011;7880;50.110;9.372;2023-05-07T02:57:16;1.4;;;1.3000000000000003;;
15557;SDS011;7880;50.110;9.372;2023-05-07T03:02:20;3.238461538461539;;;1.469230769230769;;
15557;SDS011;7880;50.110;9.372;2023-05-07T03:07:22;1.9307692307692303;;;1.4;;
15557;SDS011;7880;50.110;9.372;2023-05-07T03:12:26;2.169230769230769;;;1.8000000000000005;;
15557;SDS011;7880;50.110;9.372;2023-05-07T03:17:32;1.6;;;1.4;;
15557;SDS011;7880;50.110;9.372;2023-05-07T03:22:33;2.6000000000000005;;;2.1307692307692307;;
15557;SDS011;7880;50.110;9.372;2023-05-07T03:27:41;2.169230769230769;;;1.969230769230769;;
15557;SDS011;7880;50.110;9.372;2023-05-07T03:32:41;5.269230769230769;;;2.230769230769231;;
15557;SDS011;7880;50.110;9.372;2023-05-07T03:37:47;3.469230769230769;;;2.7;;
15557;SDS011;7880;50.110;9.372;2023-05-07T03:42:53;2.899999999999999;;;2.3999999999999995;;
15557;SDS011;7880;50.110;9.372;2023-05-07T03:48:00;2.93076923076923;;;2.1307692307692307;;
15557;SDS011;7880;50.110;9.372;2023-05-07T03:53:05;3.2;;;2.5;;
15557;SDS011;7880;50.110;9.372;2023-05-07T03:58:09;4.369230769230769;;;2.6000000000000005;;
15557;SDS011;7880;50.110;9.372;2023-05-07T04:03:17;3.4230769230769242;;;2.8;;
15557;SDS011;7880;50.110;9.372;2023-05-07T04:08:25;3.100000000000001;;;2.8;;
15557;SDS011;7880;50.110;9.372;2023-05-07T04:13:24;3.6692307692307695;;;2.969230769230769;;
15557;SDS011;7880;50.110;9.372;2023-05-07T04:18:30;4.5;;;2.8615384615384616;;
15557;SDS011;7880;50.110;9.372;2023-05-07T04:23:46;3.169230769230769;;;2.8;;
15557;SDS011;7880;50.110;9.372;2023-05-07T04:28:42;5.138461538461538;;;3.399999999999999;;
15557;SDS011;7880;50.110;9.372;2023-05-07T04:33:44;4.700000000000001;;;3.399999999999999;;
15557;SDS011;7880;50.110;9.372;2023-05-07T04:38:51;7.330769230769229;;;3.399999999999999;;
15557;SDS011;7880;50.110;9.372;2023-05-07T04:43:59;4.0;;;3.600000000000001;;
15557;SDS011;7880;50.110;9.372;2023-05-07T04:48:59;5.869230769230768;;;3.7000000000000006;;
15557;SDS011;7880;50.110;9.372;2023-05-07T04:54:02;5.253846153846154;;;3.7999999999999994;;
15557;SDS011;7880;50.110;9.372;2023-05-07T04:59:11;5.730769230769231;;;4.0;;
15557;SDS011;7880;50.110;9.372;2023-05-07T05:04:10;4.430769230769231;;;4.0307692307692315;;
15557;SDS011;7880;50.110;9.372;2023-05-07T05:09:16;4.200000000000001;;;3.7999999999999994;;
15557;SDS011;7880;50.110;9.372;2023-05-07T05:14:18;4.284615384615385;;;3.7000000000000006;;
15557;SDS011;7880;50.110;9.372;2023-05-07T05:19:22;4.492307692307692;;;3.93076923076923;;
15557;SDS011;7880;50.110;9.372;2023-05-07T05:24:26;4.6692307692307695;;;4.269230769230769;;
15557;SDS011;7880;50.110;9.372;2023-05-07T05:29:31;4.769230769230769;;;4.200000000000001;;
15557;SDS011;7880;50.110;9.372;2023-05-07T05:34:33;5.53076923076923;;;4.96923076923077;;
15557;SDS011;7880;50.110;9.372;2023-05-07T05:39:37;6.407692307692309;;;4.700000000000001;;
15557;SDS011;7880;50.110;9.372;2023-05-07T05:44:49;4.630769230769232;;;4.23076923076923;;
15557;SDS011;7880;50.110;9.372;2023-05-07T05:49:52;6.43076923076923;;;4.730769230769231;;
15557;SDS011;7880;50.110;9.372;2023-05-07T05:54:49;6.230769230769231;;;4.93076923076923;;
15557;SDS011;7880;50.110;9.372;2023-05-07T05:59:52;5.130769230769232;;;4.530769230769231;;
15557;SDS011;7880;50.110;9.372;2023-05-07T06:04:56;5.4;;;4.700000000000001;;
15557;SDS011;7880;50.110;9.372;2023-05-07T06:10:02;5.3307692307692305;;;4.530769230769231;;
15557;SDS011;7880;50.110;9.372;2023-05-07T06:15:07;8.430769230769231;;;5.130769230769232;;
15557;SDS011;7880;50.110;9.372;2023-05-07T06:20:09;6.869230769230768;;;5.0;;
15557;SDS011;7880;50.110;9.372;2023-05-07T06:25:13;7.0;;;4.8999999999999995;;
15557;SDS011;7880;50.110;9.372;2023-05-07T06:30:17;9.176923076923076;;;4.869230769230769;;
15557;SDS011;7880;50.110;9.372;2023-05-07T06:35:21;6.238461538461536;;;5.1000000000000005;;
15557;SDS011;7880;50.110;9.372;2023-05-07T06:40:30;5.3307692307692305;;;4.830769230769231;;
15557;SDS011;7880;50.110;9.372;2023-05-07T06:45:30;6.299999999999998;;;5.299999999999999;;
15557;SDS011;7880;50.110;9.372;2023-05-07T06:50:37;5.43076923076923;;;4.730769230769231;;
15557;SDS011;7880;50.110;9.372;2023-05-07T06:55:41;6.5;;;4.830769230769231;;
15557;SDS011;7880;50.110;9.372;2023-05-07T07:00:45;5.700000000000002;;;4.530769230769231;;
15557;SDS011;7880;50.110;9.372;2023-05-07T07:05:51;5.799999999999998;;;5.200000000000001;;
15557;SDS011;7880;50.110;9.372;2023-05-07T07:10:52;5.56923076923077;;;4.569230769230769;;
15557;SDS011;7880;50.110;9.372;2023-05-07T07:15:56;9.276923076923076;;;4.869230769230769;;
15557;SDS011;7880;50.110;9.372;2023-05-07T07:21:00;5.723076923076921;;;5.0;;
15557;SDS011;7880;50.110;9.372;2023-05-07T07:26:04;5.292307692307692;;;4.792307692307693;;
15557;SDS011;7880;50.110;9.372;2023-05-07T07:31:12;6.423076923076923;;;5.1692307692307695;;
15557;SDS011;7880;50.110;9.372;2023-05-07T07:36:18;5.6692307692307695;;;5.1692307692307695;;
15557;SDS011;7880;50.110;9.372;2023-05-07T07:41:23;5.538461538461541;;;4.769230769230769;;
15557;SDS011;7880;50.110;9.372;2023-05-07T07:46:23;5.4923076923076914;;;4.961538461538461;;
15557;SDS011;7880;50.110;9.372;2023-05-07T07:51:26;5.43076923076923;;;4.93076923076923;;
15557;SDS011;7880;50.110;9.372;2023-05-07T07:56:36;5.200000000000001;;;4.700000000000001;;
15557;SDS011;7880;50.110;9.372;2023-05-07T08:01:35;5.138461538461538;;;4.638461538461538;;
15557;SDS011;7880;50.110;9.372;2023-05-07T08:06:38;6.215384615384616;;;5.207692307692307;;
15557;SDS011;7880;50.110;9.372;2023-05-07T08:11:55;7.56923076923077;;;4.661538461538462;;
15557;SDS011;7880;50.110;9.372;2023-05-07T08:16:49;5.1000000000000005;;;4.6000000000000005;;
15557;SDS011;7880;50.110;9.372;2023-05-07T08:21:55;5.46923076923077;;;4.96923076923077;;
15557;SDS011;7880;50.110;9.372;2023-05-07T08:26:57;5.6692307692307695;;;4.96923076923077;;
15557;SDS011;7880;50.110;9.372;2023-05-07T08:32:00;4.869230769230769;;;4.469230769230769;;
15557;SDS011;7880;50.110;9.372;2023-05-07T08:37:04;6.369230769230768;;;4.700000000000001;;
15557;SDS011;7880;50.110;9.372;2023-05-07T08:42:08;5.4923076923076914;;;4.8999999999999995;;
15557;SDS011;7880;50.110;9.372;2023-05-07T08:47:11;5.56923076923077;;;4.5;;
15557;SDS011;7880;50.110;9.372;2023-05-07T08:52:16;4.8999999999999995;;;4.3999999999999995;;
15557;SDS011;7880;50.110;9.372;2023-05-07T08:57:21;5.0;;;4.5;;
15557;SDS011;7880;50.110;9.372;2023-05-07T09:02:24;5.269230769230769;;;4.700000000000001;;
15557;SDS011;7880;50.110;9.372;2023-05-07T09:07:27;6.538461538461541;;;4.0307692307692315;;
15557;SDS011;7880;50.110;9.372;2023-05-07T09:12:31;5.238461538461538;;;4.0;;
15557;SDS011;7880;50.110;9.372;2023-05-07T09:17:37;4.299999999999999;;;3.7000000000000006;;
15557;SDS011;7880;50.110;9.372;2023-05-07T09:22:41;4.438461538461538;;;3.469230769230769;;
15557;SDS011;7880;50.110;9.372;2023-05-07T09:27:44;5.392307692307691;;;3.530769230769231;;
15557;SDS011;7880;50.110;9.372;2023-05-07T09:32:54;4.123076923076923;;;3.5538461538461545;;
15557;SDS011;7880;50.110;9.372;2023-05-07T09:37:53;5.138461538461538;;;3.56923076923077;;
15557;SDS011;7880;50.110;9.372;2023-05-07T09:43:09;5.238461538461538;;;3.600000000000001;;
15557;SDS011;7880;50.110;9.372;2023-05-07T09:48:05;4.230769230769233;;;3.2999999999999994;;
15557;SDS011;7880;50.110;9.372;2023-05-07T09:53:14;3.8307692307692305;;;3.43076923076923;;
15557;SDS011;7880;50.110;9.372;2023-05-07T09:58:11;4.269230769230769;;;3.100000000000001;;
15557;SDS011;7880;50.110;9.372;2023-05-07T10:03:16;3.7307692307692295;;;3.2999999999999994;;
15557;SDS011;7880;50.110;9.372;2023-05-07T10:08:20;4.06923076923077;;;2.969230769230769;;
15557;SDS011;7880;50.110;9.372;2023-05-07T10:13:24;7.007692307692308;;;3.0;;
15557;SDS011;7880;50.110;9.372;2023-05-07T10:18:30;4.8999999999999995;;;3.7000000000000006;;
15557;SDS011;7880;50.110;9.372;2023-05-07T10:23:32;3.469230769230769;;;2.969230769230769;;
15557;SDS011;7880;50.110;9.372;2023-05-07T10:28:37;4.569230769230769;;;2.569230769230769;;
15557;SDS011;7880;50.110;9.372;2023-05-07T10:33:49;3.100000000000001;;;2.6000000000000005;;
15557;SDS011;7880;50.110;9.372;2023-05-07T10:38:48;4.569230769230769;;;3.0;;
15557;SDS011;7880;50.110;9.372;2023-05-07T10:44:01;3.2307692307692295;;;2.93076923076923;;
15557;SDS011;7880;50.110;9.372;2023-05-07T10:49:12;2.899999999999999;;;2.530769230769231;;
15557;SDS011;7880;50.110;9.372;2023-05-07T10:54:22;3.7692307692307705;;;2.6000000000000005;;
15557;SDS011;7880;50.110;9.372;2023-05-07T10:59:40;3.7999999999999994;;;3.06923076923077;;
15557;SDS011;7880;50.110;9.372;2023-05-07T11:04:26;6.0076923076923086;;;3.0;;
15557;SDS011;7880;50.110;9.372;2023-05-07T11:09:44;2.93076923076923;;;2.6000000000000005;;
15557;SDS011;7880;50.110;9.372;2023-05-07T11:14:50;3.369230769230768;;;2.369230769230769;;
15557;SDS011;7880;50.110;9.372;2023-05-07T11:19:54;2.3999999999999995;;;2.1999999999999997;;
15557;SDS011;7880;50.110;9.372;2023-05-07T11:24:42;3.438461538461538;;;2.3000000000000003;;
15557;SDS011;7880;50.110;9.372;2023-05-07T11:29:47;2.3000000000000003;;;2.1000000000000005;;
15557;SDS011;7880;50.110;9.372;2023-05-07T11:34:57;4.23076923076923;;;2.3999999999999995;;
15557;SDS011;7880;50.110;9.372;2023-05-07T11:40:02;4.369230769230769;;;2.3000000000000003;;
15557;SDS011;7880;50.110;9.372;2023-05-07T11:45:01;3.169230769230769;;;2.369230769230769;;
15557;SDS011;7880;50.110;9.372;2023-05-07T11:50:08;1.9307692307692308;;;1.8307692307692305;;
15557;SDS011;7880;50.110;9.372;2023-05-07T11:55:11;3.1384615384615384;;;1.6307692307692305;;
15557;SDS011;7880;50.110;9.372;2023-05-07T12:00:16;2.899999999999999;;;1.8000000000000005;;
15557;SDS011;7880;50.110;9.372;2023-05-07T12:06:38;1.5615384615384613;;;1.4;;
15557;SDS011;7880;50.110;9.372;2023-05-07T12:11:43;1.969230769230769;;;1.6;;
15557;SDS011;7880;50.110;9.372;2023-05-07T12:16:48;4.5;;;1.8999999999999997;;
15557;SDS011;7880;50.110;9.372;2023-05-07T12:21:56;2.8692307692307684;;;2.1999999999999997;;
15557;SDS011;7880;50.110;9.372;2023-05-07T12:26:57;3.469230769230769;;;1.8999999999999997;;
15557;SDS011;7880;50.110;9.372;2023-05-07T12:32:05;2.8;;;1.7307692307692308;;
15557;SDS011;7880;50.110;9.372;2023-05-07T12:37:10;4.369230769230769;;;2.1000000000000005;;
15557;SDS011;7880;50.110;9.372;2023-05-07T12:42:14;3.438461538461538;;;2.269230769230769;;
15557;SDS011;7880;50.110;9.372;2023-05-07T12:47:17;4.338461538461538;;;2.1000000000000005;;
15557;SDS011;7880;50.110;9.372;2023-05-07T12:52:37;2.4923076923076923;;;2.0692307692307694;;
15557;SDS011;7880;50.110;9.372;2023-05-07T12:57:25;2.030769230769231;;;1.8307692307692305;;
15557;SDS011;7880;50.110;9.372;2023-05-07T13:02:37;1.8000000000000005;;;1.6;;
15557;SDS011;7880;50.110;9.372;2023-05-07T13:07:35;2.5615384615384618;;;1.8000000000000005;;
15557;SDS011;7880;50.110;9.372;2023-05-07T13:12:38;2.0;;;1.8000000000000005;;
15557;SDS011;7880;50.110;9.372;2023-05-07T13:17:48;1.8000000000000005;;;1.6999999999999995;;
15557;SDS011;7880;50.110;9.372;2023-05-07T13:22:49;2.630769230769231;;;2.030769230769231;;
15557;SDS011;7880;50.110;9.372;2023-05-07T13:27:56;3.6384615384615384;;;2.0;;
15557;SDS011;7880;50.110;9.372;2023-05-07T13:32:58;2.369230769230769;;;2.0;;
15557;SDS011;7880;50.110;9.372;2023-05-07T13:38:08;1.8000000000000005;;;1.6999999999999995;;
15557;SDS011;7880;50.110;9.372;2023-05-07T13:45:15;1.4;;;1.0;;
15557;SDS011;7880;50.110;9.372;2023-05-07T13:50:17;1.8000000000000005;;;1.4;;
15557;SDS011;7880;50.110;9.372;2023-05-07T13:55:23;1.1999999999999997;;;1.0999999999999999;;
15557;SDS011;7880;50.110;9.372;2023-05-07T14:00:29;3.56923076923077;;;1.4;;
15557;SDS011;7880;50.110;9.372;2023-05-07T14:05:31;1.8692307692307695;;;1.4;;
15557;SDS011;7880;50.110;9.372;2023-05-07T14:10:38;1.8692307692307695;;;1.2692307692307692;;
15557;SDS011;7880;50.110;9.372;2023-05-07T14:15:46;1.969230769230769;;;1.1999999999999997;;
15557;SDS011;7880;50.110;9.372;2023-05-07T14:20:48;1.3000000000000003;;;1.1999999999999997;;
15557;SDS011;7880;50.110;9.372;2023-05-07T14:25:52;1.0999999999999999;;;1.0;;
15557;SDS011;7880;50.110;9.372;2023-05-07T14:30:56;10.415384615384616;;;2.0;;
15557;SDS011;7880;50.110;9.372;2023-05-07T14:36:00;2.230769230769231;;;1.6;;
15557;SDS011;7880;50.110;9.372;2023-05-07T14:41:06;1.330769230769231;;;1.1999999999999997;;
15557;SDS011;7880;50.110;9.372;2023-05-07T14:46:08;1.8999999999999997;;;1.6;;
15557;SDS011;7880;50.110;9.372;2023-05-07T14:51:12;1.3692307692307695;;;1.0999999999999999;;
15557;SDS011;7880;50.110;9.372;2023-05-07T14:56:17;3.092307692307692;;;1.7461538461538457;;
15557;SDS011;7880;50.110;9.372;2023-05-07T15:01:28;1.8307692307692305;;;1.6999999999999995;;
15557;SDS011;7880;50.110;9.372;2023-05-07T15:06:26;2.523076923076923;;;1.0999999999999999;;
15557;SDS011;7880;50.110;9.372;2023-05-07T15:11:30;1.6999999999999995;;;1.0307692307692307;;
15557;SDS011;7880;50.110;9.372;2023-05-07T15:16:34;1.0999999999999999;;;1.0;;
15557;SDS011;7880;50.110;9.372;2023-05-07T15:21:43;1.1999999999999997;;;1.0999999999999999;;
15557;SDS011;7880;50.110;9.372;2023-05-07T15:26:41;1.169230769230769;;;1.0;;
15557;SDS011;7880;50.110;9.372;2023-05-07T15:31:45;2.169230769230769;;;1.3000000000000003;;
15557;SDS011;7880;50.110;9.372;2023-05-07T15:36:48;1.969230769230769;;;1.0999999999999999;;
15557;SDS011;7880;50.110;9.372;2023-05-07T15:41:51;0.9461538461538462;;;0.8461538461538461;;
15557;SDS011;7880;50.110;9.372;2023-05-07T15:46:55;1.3000000000000003;;;1.1999999999999997;;
15557;SDS011;7880;50.110;9.372;2023-05-07T15:52:05;2.7230769230769223;;;1.4;;
15557;SDS011;7880;50.110;9.372;2023-05-07T15:57:09;3.2999999999999994;;;1.4307692307692308;;
15557;SDS011;7880;50.110;9.372;2023-05-07T16:02:09;2.838461538461538;;;1.969230769230769;;
15557;SDS011;7880;50.110;9.372;2023-05-07T16:07:18;1.5;;;1.4;;
15557;SDS011;7880;50.110;9.372;2023-05-07T16:12:19;1.530769230769231;;;1.4307692307692308;;
15557;SDS011;7880;50.110;9.372;2023-05-07T16:17:25;2.1999999999999997;;;2.0;;
15557;SDS011;7880;50.110;9.372;2023-05-07T16:22:32;2.938461538461538;;;1.5692307692307692;;
15557;SDS011;7880;50.110;9.372;2023-05-07T16:27:34;3.238461538461539;;;1.6999999999999995;;
15557;SDS011;7880;50.110;9.372;2023-05-07T16:32:41;2.1999999999999997;;;1.8000000000000005;;
15557;SDS011;7880;50.110;9.372;2023-05-07T16:37:42;1.8000000000000005;;;1.4;;
15557;SDS011;7880;50.110;9.372;2023-05-07T16:42:46;2.1000000000000005;;;1.8999999999999997;;
15557;SDS011;7880;50.110;9.372;2023-05-07T16:47:57;2.269230769230769;;;1.6;;
15557;SDS011;7880;50.110;9.372;2023-05-07T16:52:53;4.369230769230769;;;1.8307692307692305;;
15557;SDS011;7880;50.110;9.372;2023-05-07T16:57:55;1.8000000000000005;;;1.6999999999999995;;
15557;SDS011;7880;50.110;9.372;2023-05-07T17:03:01;2.0384615384615383;;;1.4;;
15557;SDS011;7880;50.110;9.372;2023-05-07T17:08:04;3.3846153846153837;;;2.1000000000000005;;
15557;SDS011;7880;50.110;9.372;2023-05-07T17:13:08;1.7307692307692308;;;1.6307692307692305;;
15557;SDS011;7880;50.110;9.372;2023-05-07T17:18:15;2.0692307692307694;;;1.6;;
15557;SDS011;7880;50.110;9.372;2023-05-07T17:23:19;1.8999999999999997;;;1.8000000000000005;;
15557;SDS011;7880;50.110;9.372;2023-05-07T17:28:23;1.8000000000000005;;;1.4;;
15557;SDS011;7880;50.110;9.372;2023-05-07T17:33:26;4.2384615384615385;;;1.6307692307692305;;
15557;SDS011;7880;50.110;9.372;2023-05-07T17:38:30;1.7923076923076922;;;1.4923076923076926;;
15557;SDS011;7880;50.110;9.372;2023-05-07T17:43:35;1.8999999999999997;;;1.6999999999999995;;
15557;SDS011;7880;50.110;9.372;2023-05-07T17:48:42;1.969230769230769;;;1.5;;
15557;SDS011;7880;50.110;9.372;2023-05-07T17:53:44;4.5;;;2.0615384615384613;;
15557;SDS011;7880;50.110;9.372;2023-05-07T17:58:53;3.1384615384615384;;;2.169230769230769;;
15557;SDS011;7880;50.110;9.372;2023-05-07T18:03:51;2.0692307692307694;;;1.8000000000000005;;
15557;SDS011;7880;50.110;9.372;2023-05-07T18:08:55;3.2;;;1.8307692307692305;;
15557;SDS011;7880;50.110;9.372;2023-05-07T18:14:01;2.93076923076923;;;1.6307692307692305;;
15557;SDS011;7880;50.110;9.372;2023-05-07T18:19:08;2.9615384615384617;;;1.8000000000000005;;
15557;SDS011;7880;50.110;9.372;2023-05-07T18:24:11;2.269230769230769;;;2.0692307692307694;;
15557;SDS011;7880;50.110;9.372;2023-05-07T18:29:18;3.169230769230769;;;2.0;;
15557;SDS011;7880;50.110;9.372;2023-05-07T18:34:21;1.8692307692307695;;;1.7692307692307692;;
15557;SDS011;7880;50.110;9.372;2023-05-07T18:39:29;2.369230769230769;;;1.8307692307692305;;
15557;SDS011;7880;50.110;9.372;2023-05-07T18:44:37;1.9307692307692308;;;1.7307692307692308;;
15557;SDS011;7880;50.110;9.372;2023-05-07T18:49:37;3.2692307692307705;;;1.6999999999999995;;
15557;SDS011;7880;50.110;9.372;2023-05-07T18:54:42;2.1999999999999997;;;1.5;;
15557;SDS011;7880;50.110;9.372;2023-05-07T18:59:46;1.7692307692307692;;;1.3000000000000003;;
15557;SDS011;7880;50.110;9.372;2023-05-07T19:04:50;1.6692307692307695;;;1.4;;
15557;SDS011;7880;50.110;9.372;2023-05-07T19:09:53;2.1000000000000005;;;1.5;;
15557;SDS011;7880;50.110;9.372;2023-05-07T19:14:57;1.6;;;1.4;;
15557;SDS011;7880;50.110;9.372;2023-05-07T19:20:01;1.4;;;1.2307692307692308;;
15557;SDS011;7880;50.110;9.372;2023-05-07T19:25:05;2.369230769230769;;;1.8000000000000005;;
15557;SDS011;7880;50.110;9.372;2023-05-07T19:30:12;4.8076923076923075;;;1.8692307692307695;;
15557;SDS011;7880;50.110;9.372;2023-05-07T19:35:14;1.2769230769230768;;;1.238461538461538;;
15557;SDS011;7880;50.110;9.372;2023-05-07T19:40:18;1.1999999999999997;;;1.0999999999999999;;
15557;SDS011;7880;50.110;9.372;2023-05-07T19:45:23;2.230769230769231;;;1.5;;
15557;SDS011;7880;50.110;9.372;2023-05-07T19:50:27;2.5;;;1.7692307692307692;;
15557;SDS011;7880;50.110;9.372;2023-05-07T19:55:38;1.4;;;1.3000000000000003;;
15557;SDS011;7880;50.110;9.372;2023-05-07T20:00:38;1.6692307692307695;;;1.5;;
15557;SDS011;7880;50.110;9.372;2023-05-07T20:05:47;2.669230769230769;;;1.4;;
15557;SDS011;7880;50.110;9.372;2023-05-07T20:10:43;3.523076923076923;;;1.2384615384615385;;
15557;SDS011;7880;50.110;9.372;2023-05-07T20:15:47;2.1000000000000005;;;2.0;;
15557;SDS011;7880;50.110;9.372;2023-05-07T20:20:51;1.7307692307692308;;;1.6307692307692305;;
15557;SDS011;7880;50.110;9.372;2023-05-07T20:25:59;2.7;;;2.5;;
15557;SDS011;7880;50.110;9.372;2023-05-07T20:31:00;3.2;;;2.3999999999999995;;
15557;SDS011;7880;50.110;9.372;2023-05-07T20:36:04;4.538461538461538;;;2.3999999999999995;;
15557;SDS011;7880;50.110;9.372;2023-05-07T20:41:10;2.230769230769231;;;1.8999999999999997;;
15557;SDS011;7880;50.110;9.372;2023-05-07T20:46:16;2.0;;;1.8999999999999997;;
15557;SDS011;7880;50.110;9.372;2023-05-07T20:51:20;3.469230769230769;;;2.899999999999999;;
15557;SDS011;7880;50.110;9.372;2023-05-07T20:56:24;4.16923076923077;;;3.6692307692307695;;
15557;SDS011;7880;50.110;9.372;2023-05-07T21:01:28;4.430769230769231;;;3.7307692307692295;;
15557;SDS011;7880;50.110;9.372;2023-05-07T21:06:31;6.438461538461538;;;3.169230769230769;;
15557;SDS011;7880;50.110;9.372;2023-05-07T21:11:36;4.938461538461538;;;3.2;;
15557;SDS011;7880;50.110;9.372;2023-05-07T21:16:42;5.238461538461538;;;3.56923076923077;;
15557;SDS011;7880;50.110;9.372;2023-05-07T21:21:45;4.469230769230769;;;3.5;;
15557;SDS011;7880;50.110;9.372;2023-05-07T21:26:48;4.269230769230769;;;3.100000000000001;;
15557;SDS011;7880;50.110;9.372;2023-05-07T21:31:55;3.8307692307692305;;;3.43076923076923;;
15557;SDS011;7880;50.110;9.372;2023-05-07T21:36:57;3.438461538461538;;;3.100000000000001;;
15557;SDS011;7880;50.110;9.372;2023-05-07T21:42:02;4.338461538461538;;;3.369230769230768;;
15557;SDS011;7880;50.110;9.372;2023-05-07T21:47:04;3.738461538461539;;;3.369230769230768;;
15557;SDS011;7880;50.110;9.372;2023-05-07T21:52:10;3.8307692307692305;;;3.399999999999999;;
15557;SDS011;7880;50.110;9.372;2023-05-07T21:57:15;3.630769230769232;;;3.2999999999999994;;
15557;SDS011;7880;50.110;9.372;2023-05-07T22:02:20;4.869230769230769;;;3.100000000000001;;
15557;SDS011;7880;50.110;9.372;2023-05-07T22:07:28;3.899999999999999;;;3.5;;
15557;SDS011;7880;50.110;9.372;2023-05-07T22:12:29;4.5538461538461545;;;3.5538461538461545;;
15557;SDS011;7880;50.110;9.372;2023-05-07T22:17:34;5.346153846153844;;;3.5;;
15557;SDS011;7880;50.110;9.372;2023-05-07T22:22:44;4.6692307692307695;;;3.43076923076923;;
15557;SDS011;7880;50.110;9.372;2023-05-07T22:27:40;4.338461538461538;;;3.169230769230769;;
15557;SDS011;7880;50.110;9.372;2023-05-07T22:32:50;4.16923076923077;;;3.399999999999999;;
15557;SDS011;7880;50.110;9.372;2023-05-07T22:37:54;3.530769230769231;;;3.2307692307692295;;
15557;SDS011;7880;50.110;9.372;2023-05-07T22:43:02;3.399999999999999;;;3.100000000000001;;
15557;SDS011;7880;50.110;9.372;2023-05-07T22:48:03;3.838461538461539;;;3.469230769230769;;
15557;SDS011;7880;50.110;9.372;2023-05-07T22:53:05;4.5;;;3.3538461538461535;;
15557;SDS011;7880;50.110;9.372;2023-05-07T22:58:16;4.269230769230769;;;3.530769230769231;;
15557;SDS011;7880;50.110;9.372;2023-05-07T23:03:16;7.207692307692307;;;3.0;;
15557;SDS011;7880;50.110;9.372;2023-05-07T23:08:20;6.538461538461541;;;4.0;;
15557;SDS011;7880;50.110;9.372;2023-05-07T23:13:24;4.1000000000000005;;;3.399999999999999;;
15557;SDS011;7880;50.110;9.372;2023-05-07T23:18:29;4.338461538461538;;;3.469230769230769;;